createdAt,value
2019-02-25T00:02:30.887Z,2.50
2019-02-25T00:05:34.661Z,2.17
2019-02-25T00:08:37.718Z,2.77
2019-02-25T00:11:41.261Z,2.47
2019-02-25T00:14:44.296Z,2.50
2019-02-25T00:17:47.564Z,2.20
2019-02-25T00:20:50.801Z,2.87
2019-02-25T00:23:53.885Z,2.50
2019-02-25T00:26:57.134Z,2.80
2019-02-25T00:30:00.300Z,2.77
2019-02-25T00:33:03.355Z,4.30
2019-02-25T00:36:07.295Z,3.43
2019-02-25T00:39:10.327Z,3.43
2019-02-25T00:42:13.889Z,2.80
2019-02-25T00:45:16.862Z,2.90
2019-02-25T00:48:19.826Z,2.53
2019-02-25T00:51:23.352Z,3.47
2019-02-25T00:54:26.575Z,3.97
2019-02-25T00:57:30.370Z,3.50
2019-02-25T01:00:33.584Z,1.90
2019-02-25T01:03:37.073Z,3.43
2019-02-25T01:06:40.428Z,2.80
2019-02-25T01:09:44.415Z,3.17
2019-02-25T01:12:47.546Z,2.47
2019-02-25T01:15:51.094Z,3.03
2019-02-25T01:18:54.388Z,3.57
2019-02-25T01:21:57.364Z,3.30
2019-02-25T01:25:01.168Z,2.80
2019-02-25T01:28:04.450Z,2.90
2019-02-25T01:31:07.674Z,2.70
2019-02-25T01:34:11.202Z,2.30
2019-02-25T01:37:14.438Z,2.40
2019-02-25T01:40:17.626Z,2.10
2019-02-25T01:43:20.584Z,2.40
2019-02-25T01:46:24.100Z,2.00
2019-02-25T01:49:27.035Z,2.80
2019-02-25T01:52:30.007Z,1.70
2019-02-25T01:55:35.373Z,2.27
2019-02-25T01:58:38.862Z,2.40
2019-02-25T02:01:42.652Z,1.90
2019-02-25T02:04:45.893Z,1.93
2019-02-25T02:07:49.383Z,2.10
2019-02-25T02:10:52.355Z,2.87
2019-02-25T02:13:55.934Z,2.27
2019-02-25T02:16:59.164Z,2.93
2019-02-25T02:20:02.149Z,2.37
2019-02-25T02:23:05.220Z,2.10
2019-02-25T02:26:08.652Z,2.43
2019-02-25T02:29:12.187Z,2.30
2019-02-25T02:32:15.440Z,3.00
2019-02-25T02:35:18.734Z,2.20
2019-02-25T02:38:22.585Z,2.80
2019-02-25T02:41:25.835Z,2.47
2019-02-25T02:44:30.112Z,2.53
2019-02-25T02:48:04.890Z,1.93
2019-02-25T02:51:07.874Z,2.27
2019-02-25T02:54:11.379Z,2.40
2019-02-25T02:57:14.892Z,2.70
2019-02-25T03:00:18.323Z,2.10
2019-02-25T03:03:22.210Z,2.10
2019-02-25T03:06:25.455Z,2.30
2019-02-25T03:09:28.675Z,2.30
2019-02-25T03:12:31.675Z,2.10
2019-02-25T03:15:34.641Z,2.30
2019-02-25T03:18:37.743Z,1.50
2019-02-25T03:21:40.959Z,2.23
2019-02-25T03:24:43.909Z,1.90
2019-02-25T03:27:46.865Z,2.23
2019-02-25T03:30:50.099Z,2.07
2019-02-25T03:33:53.351Z,1.53
2019-02-25T03:36:56.287Z,1.97
2019-02-25T03:39:59.803Z,1.57
2019-02-25T03:43:03.069Z,1.93
2019-02-25T03:46:06.034Z,2.03
2019-02-25T03:49:08.987Z,1.70
2019-02-25T03:52:12.257Z,1.87
2019-02-25T03:55:16.275Z,1.50
2019-02-25T03:58:19.556Z,1.43
2019-02-25T04:01:22.524Z,1.33
2019-02-25T04:04:25.783Z,1.67
2019-02-25T04:07:29.321Z,0.93
2019-02-25T04:10:32.548Z,1.67
2019-02-25T04:13:35.583Z,1.47
2019-02-25T04:16:38.669Z,1.27
2019-02-25T04:19:42.279Z,1.20
2019-02-25T04:22:45.544Z,2.17
2019-02-25T04:25:48.820Z,1.30
2019-02-25T04:28:52.048Z,1.40
2019-02-25T04:31:55.615Z,1.40
2019-02-25T04:34:58.559Z,1.60
2019-02-25T04:38:03.126Z,1.00
2019-02-25T04:41:06.534Z,1.20
2019-02-25T04:44:09.755Z,1.17
2019-02-25T04:47:12.735Z,1.40
2019-02-25T04:50:16.045Z,1.10
2019-02-25T04:53:19.219Z,1.00
2019-02-25T04:56:22.151Z,1.03
2019-02-25T04:59:25.120Z,1.53
2019-02-25T05:02:28.689Z,1.33
2019-02-25T05:05:31.944Z,1.93
2019-02-25T05:08:35.254Z,1.10
2019-02-25T05:11:38.221Z,1.90
2019-02-25T05:14:41.838Z,1.30
2019-02-25T05:17:44.793Z,1.30
2019-02-25T05:20:47.753Z,1.37
2019-02-25T05:23:51.046Z,1.47
2019-02-25T05:26:54.497Z,1.37
2019-02-25T05:29:57.765Z,1.10
2019-02-25T05:33:01.062Z,1.50
2019-02-25T05:36:04.559Z,1.40
2019-02-25T05:39:07.528Z,1.53
2019-02-25T05:42:10.761Z,1.40
2019-02-25T05:45:14.323Z,1.33
2019-02-25T05:48:18.138Z,1.20
2019-02-25T05:51:21.675Z,1.47
2019-02-25T05:54:24.957Z,1.20
2019-02-25T05:57:28.173Z,1.47
2019-02-25T06:00:32.005Z,1.30
2019-02-25T06:03:35.575Z,1.73
2019-02-25T06:06:39.332Z,1.43
2019-02-25T06:09:42.513Z,1.43
2019-02-25T06:12:45.495Z,2.07
2019-02-25T06:15:51.310Z,1.50
2019-02-25T06:18:54.141Z,2.20
2019-02-25T06:21:57.376Z,1.93
2019-02-25T06:25:00.421Z,1.70
2019-02-25T06:28:03.681Z,1.57
2019-02-25T06:31:06.647Z,1.33
2019-02-25T06:34:09.583Z,1.50
2019-02-25T06:37:12.538Z,1.70
2019-02-25T06:40:16.331Z,1.57
2019-02-25T06:43:19.686Z,2.20
2019-02-25T06:46:22.643Z,2.30
2019-02-25T06:49:26.156Z,1.90
2019-02-25T06:52:29.110Z,1.73
2019-02-25T06:55:32.079Z,1.53
2019-02-25T06:58:35.690Z,1.33
2019-02-25T07:01:38.901Z,1.30
2019-02-25T07:04:57.062Z,1.73
2019-02-25T07:08:20.358Z,2.10
2019-02-25T07:11:38.525Z,1.77
2019-02-25T07:14:56.997Z,1.80
2019-02-25T07:18:19.746Z,1.50
2019-02-25T07:21:28.464Z,1.43
2019-02-25T07:24:53.083Z,2.10
2019-02-25T07:28:13.837Z,1.63
2019-02-25T07:31:42.496Z,1.80
2019-02-25T07:34:51.064Z,1.80
2019-02-25T07:38:06.036Z,1.53
2019-02-25T07:42:20.371Z,2.40
2019-02-25T07:45:45.702Z,1.43
2019-02-25T07:49:11.347Z,1.33
2019-02-25T07:52:23.575Z,1.50
2019-02-25T07:55:52.257Z,2.00
2019-02-25T07:59:13.566Z,1.93
2019-02-25T08:02:28.737Z,1.60
2019-02-25T08:05:56.636Z,1.73
2019-02-25T08:09:18.020Z,2.00
2019-02-25T08:12:43.096Z,1.57
2019-02-25T08:16:18.458Z,1.77
2019-02-25T08:19:53.159Z,1.93
2019-02-25T08:23:24.575Z,2.20
2019-02-25T08:27:02.418Z,1.70
2019-02-25T08:30:26.168Z,1.57
2019-02-25T08:33:47.847Z,2.13
2019-02-25T08:37:35.668Z,1.80
2019-02-25T08:41:22.104Z,2.87
2019-02-25T08:44:33.739Z,2.70
2019-02-25T08:47:53.707Z,2.37
2019-02-25T08:50:56.970Z,2.03
2019-02-25T08:54:00.494Z,2.50
2019-02-25T08:57:04.012Z,2.80
2019-02-25T09:00:10.705Z,2.30
2019-02-25T09:03:13.903Z,2.30
2019-02-25T09:06:17.092Z,3.40
2019-02-25T09:09:21.398Z,3.33
2019-02-25T09:12:24.389Z,2.87
2019-02-25T09:15:27.986Z,3.20
2019-02-25T09:18:30.921Z,2.90
2019-02-25T09:21:34.207Z,2.87
2019-02-25T09:24:37.425Z,2.40
2019-02-25T09:27:40.956Z,3.03
2019-02-25T09:30:44.245Z,2.60
2019-02-25T09:33:47.627Z,3.00
2019-02-25T09:36:51.022Z,1.97
2019-02-25T09:39:54.242Z,2.83
2019-02-25T09:42:57.208Z,2.53
2019-02-25T09:46:00.444Z,2.67
2019-02-25T09:49:04.051Z,2.80
2019-02-25T09:52:07.078Z,2.67
2019-02-25T09:55:10.816Z,2.00
2019-02-25T09:58:13.793Z,1.97
2019-02-25T10:01:17.748Z,2.00
2019-02-25T10:04:21.567Z,2.27
2019-02-25T10:07:25.521Z,3.73
2019-02-25T10:10:28.726Z,3.13
2019-02-25T10:13:32.221Z,3.47
2019-02-25T10:16:35.159Z,2.87
2019-02-25T10:19:39.039Z,2.43
2019-02-25T10:22:42.517Z,3.03
2019-02-25T10:25:45.738Z,3.07
2019-02-25T10:28:50.209Z,3.57
2019-02-25T10:31:54.039Z,3.20
2019-02-25T10:34:57.262Z,2.30
2019-02-25T10:38:01.469Z,2.77
2019-02-25T10:41:06.131Z,2.30
2019-02-25T10:44:09.092Z,2.87
2019-02-25T10:47:13.540Z,1.30
2019-02-25T10:50:17.026Z,1.53
2019-02-25T10:53:21.995Z,3.10
2019-02-25T10:56:43.170Z,1.67
2019-02-25T10:59:47.080Z,1.57
2019-02-25T11:02:51.264Z,1.60
2019-02-25T11:05:56.291Z,2.10
2019-02-25T11:09:16.368Z,1.93
2019-02-25T11:12:23.627Z,1.80
2019-02-25T11:15:27.572Z,2.17
2019-02-25T11:18:30.613Z,1.93
2019-02-25T11:21:35.365Z,2.13
2019-02-25T11:24:38.691Z,1.97
2019-02-25T11:27:41.640Z,1.67
2019-02-25T11:30:46.646Z,2.20
2019-02-25T11:33:49.977Z,1.93
2019-02-25T11:36:54.925Z,1.60
2019-02-25T11:39:59.814Z,2.20
2019-02-25T11:43:04.255Z,2.47
2019-02-25T11:46:07.320Z,1.90
2019-02-25T11:49:10.533Z,2.07
2019-02-25T11:52:14.369Z,2.93
2019-02-25T11:55:17.799Z,2.23
2019-02-25T11:58:21.130Z,2.50
2019-02-25T12:01:24.658Z,1.83
2019-02-25T12:04:28.203Z,2.43
2019-02-25T12:07:32.100Z,2.00
2019-02-25T12:10:35.036Z,2.60
2019-02-25T12:13:38.791Z,2.00
2019-02-25T12:16:41.751Z,2.27
2019-02-25T12:19:45.246Z,2.43
2019-02-25T12:22:48.557Z,1.97
2019-02-25T12:25:53.067Z,2.90
2019-02-25T12:28:56.019Z,3.40
2019-02-25T12:31:58.968Z,2.40
2019-02-25T12:35:02.471Z,2.50
2019-02-25T12:38:05.992Z,2.27
2019-02-25T12:41:08.952Z,1.70
2019-02-25T12:44:12.196Z,2.37
2019-02-25T12:47:15.244Z,2.60
2019-02-25T12:50:18.486Z,3.10
2019-02-25T12:53:21.471Z,3.10
2019-02-25T12:56:24.431Z,2.43
2019-02-25T12:59:27.664Z,2.27
2019-02-25T13:02:31.169Z,2.40
2019-02-25T13:05:34.712Z,3.87
2019-02-25T13:08:37.679Z,2.50
2019-02-25T13:11:41.585Z,2.20
2019-02-25T13:14:44.865Z,3.13
2019-02-25T13:17:48.396Z,2.50
2019-02-25T13:20:52.230Z,1.90
2019-02-25T13:23:56.972Z,2.50
2019-02-25T13:27:01.080Z,3.17
2019-02-25T13:30:09.415Z,2.60
2019-02-25T13:33:12.861Z,2.50
2019-02-25T13:36:16.145Z,2.23
2019-02-25T13:39:19.356Z,2.27
2019-02-25T13:42:22.647Z,2.20
2019-02-25T13:45:26.194Z,2.53
2019-02-25T13:48:29.452Z,1.73
2019-02-25T13:51:32.935Z,1.90
2019-02-25T13:54:35.902Z,1.90
2019-02-25T13:57:39.760Z,2.17
2019-02-25T14:00:43.405Z,2.37
2019-02-25T14:03:47.156Z,2.50
2019-02-25T14:06:50.087Z,2.50
2019-02-25T14:09:53.054Z,2.07
2019-02-25T14:12:56.619Z,2.20
2019-02-25T14:16:00.377Z,2.37
2019-02-25T14:19:04.777Z,3.00
2019-02-25T14:22:08.280Z,2.60
2019-02-25T14:25:12.551Z,3.17
2019-02-25T14:28:16.011Z,3.03
2019-02-25T14:31:18.943Z,2.40
2019-02-25T14:34:23.649Z,2.30
2019-02-25T14:37:26.994Z,3.30
2019-02-25T14:40:32.599Z,3.33
2019-02-25T14:43:41.751Z,2.27
2019-02-25T14:46:41.254Z,3.50
2019-02-25T14:49:44.512Z,2.90
2019-02-25T14:52:48.352Z,3.40
2019-02-25T14:55:53.145Z,3.10
2019-02-25T14:58:56.853Z,2.33
2019-02-25T15:02:01.646Z,2.93
2019-02-25T15:05:05.284Z,3.50
2019-02-25T15:08:09.735Z,2.30
2019-02-25T15:11:13.142Z,2.23
2019-02-25T15:14:17.091Z,2.77
2019-02-25T15:17:21.118Z,3.17
2019-02-25T15:20:26.188Z,3.97
2019-02-25T15:23:30.804Z,3.40
2019-02-25T15:26:42.658Z,2.90
2019-02-25T15:29:42.136Z,3.10
2019-02-25T15:32:54.801Z,3.47
2019-02-25T15:35:50.422Z,3.23
2019-02-25T15:38:53.374Z,3.10
2019-02-25T15:41:56.955Z,3.10
2019-02-25T15:44:59.908Z,3.47
2019-02-25T15:48:03.926Z,2.60
2019-02-25T15:51:07.304Z,2.80
2019-02-25T15:54:10.534Z,3.43
2019-02-25T15:57:14.041Z,2.33
2019-02-25T16:00:19.104Z,2.40
2019-02-25T16:03:23.712Z,2.20
2019-02-25T16:06:29.210Z,1.90
2019-02-25T16:09:33.993Z,2.30
2019-02-25T16:12:38.448Z,2.70
2019-02-25T16:15:41.619Z,2.10
2019-02-25T16:18:45.514Z,1.60
2019-02-25T16:21:49.318Z,1.93
2019-02-25T16:24:52.584Z,2.03
2019-02-25T16:27:55.623Z,4.43
2019-02-25T16:30:58.585Z,3.50
2019-02-25T16:34:01.874Z,2.40
2019-02-25T16:37:04.956Z,1.93
2019-02-25T16:40:10.586Z,1.70
2019-02-25T16:43:14.387Z,2.40
2019-02-25T16:46:18.431Z,1.97
2019-02-25T16:49:22.496Z,2.20
2019-02-25T16:52:25.778Z,1.97
2019-02-25T16:55:29.155Z,2.73
2019-02-25T16:58:33.733Z,2.10
2019-02-25T17:01:39.748Z,2.63
2019-02-25T17:04:43.299Z,3.10
2019-02-25T17:07:48.886Z,3.00
2019-02-25T17:10:53.983Z,3.17
2019-02-25T17:13:59.261Z,2.37
2019-02-25T17:17:02.476Z,3.10
2019-02-25T17:20:10.199Z,2.57
2019-02-25T17:23:13.198Z,2.00
2019-02-25T17:26:17.546Z,3.13
2019-02-25T17:29:23.113Z,3.03
2019-02-25T17:32:27.469Z,3.73
2019-02-25T17:35:30.842Z,3.80
2019-02-25T17:38:34.931Z,3.77
2019-02-25T17:41:39.925Z,3.37
2019-02-25T17:44:43.371Z,3.30
2019-02-25T17:47:46.528Z,4.23
2019-02-25T17:50:50.253Z,3.20
2019-02-25T17:53:54.837Z,3.73
2019-02-25T17:56:58.611Z,4.33
2019-02-25T18:00:02.518Z,5.00
2019-02-25T18:03:07.563Z,5.77
2019-02-25T18:06:11.503Z,5.47
2019-02-25T18:09:16.038Z,5.63
2019-02-25T18:12:19.687Z,4.73
2019-02-25T18:15:24.159Z,4.60
2019-02-25T18:18:28.001Z,4.40
2019-02-25T18:21:30.964Z,5.37
2019-02-25T18:24:34.582Z,4.60
2019-02-25T18:27:39.310Z,3.63
2019-02-25T18:30:42.946Z,4.50
2019-02-25T18:33:48.428Z,4.70
2019-02-25T18:36:53.219Z,3.83
2019-02-25T18:39:56.595Z,4.20
2019-02-25T18:43:00.436Z,4.23
2019-02-25T18:46:05.498Z,4.17
2019-02-25T18:49:11.643Z,3.87
2019-02-25T18:52:15.192Z,6.50
2019-02-25T18:55:19.219Z,5.87
2019-02-25T18:58:22.486Z,5.60
2019-02-25T19:01:25.753Z,4.27
2019-02-25T19:04:29.521Z,4.50
2019-02-25T19:07:33.667Z,7.60
2019-02-25T19:10:37.003Z,3.90
2019-02-25T19:13:40.173Z,5.70
2019-02-25T19:16:44.078Z,4.27
2019-02-25T19:19:49.924Z,4.60
2019-02-25T19:22:58.146Z,5.30
2019-02-25T19:25:59.311Z,4.80
2019-02-25T19:29:02.697Z,6.07
2019-02-25T19:32:05.859Z,4.60
2019-02-25T19:35:10.036Z,6.23
2019-02-25T19:38:15.306Z,5.00
2019-02-25T19:41:20.701Z,6.30
2019-02-25T19:44:24.549Z,5.23
2019-02-25T19:47:27.605Z,6.50
2019-02-25T19:50:32.364Z,4.90
2019-02-25T19:53:38.359Z,5.20
2019-02-25T19:56:41.342Z,4.90
2019-02-25T19:59:46.227Z,6.10
2019-02-25T20:02:49.357Z,5.60
2019-02-25T20:05:54.492Z,5.30
2019-02-25T20:08:58.288Z,4.70
2019-02-25T20:12:02.636Z,4.87
2019-02-25T20:15:11.352Z,4.70
2019-02-25T20:18:16.164Z,5.10
2019-02-25T20:21:22.395Z,4.17
2019-02-25T20:24:25.864Z,4.80
2019-02-25T20:27:28.801Z,4.17
2019-02-25T20:30:31.859Z,4.30
2019-02-25T20:33:37.391Z,4.33
2019-02-25T20:36:40.667Z,4.10
2019-02-25T20:39:44.810Z,5.60
2019-02-25T20:42:51.207Z,5.13
2019-02-25T20:45:56.443Z,4.70
2019-02-25T20:49:00.437Z,4.17
2019-02-25T20:52:04.261Z,3.70
2019-02-25T20:55:10.418Z,3.80
2019-02-25T20:58:13.969Z,3.60
2019-02-25T21:01:18.602Z,4.00
2019-02-25T21:04:23.366Z,4.77
2019-02-25T21:07:27.596Z,3.50
2019-02-25T21:10:35.534Z,3.50
2019-02-25T21:13:40.186Z,2.83
2019-02-25T21:16:43.550Z,3.80
2019-02-25T21:19:46.743Z,3.47
2019-02-25T21:22:50.664Z,3.30
2019-02-25T21:25:57.451Z,3.17
2019-02-25T21:29:00.307Z,3.03
2019-02-25T21:32:04.495Z,2.73
2019-02-25T21:35:08.807Z,3.30
2019-02-25T21:38:11.760Z,3.27
2019-02-25T21:41:15.952Z,3.00
2019-02-25T21:44:21.317Z,2.63
2019-02-25T21:47:26.519Z,2.97
2019-02-25T21:50:31.402Z,2.80
2019-02-25T21:53:35.036Z,3.03
2019-02-25T21:56:38.432Z,2.97
2019-02-25T21:59:41.685Z,3.37
2019-02-25T22:02:45.865Z,2.27
2019-02-25T22:05:53.246Z,4.80
2019-02-25T22:08:56.785Z,2.60
2019-02-25T22:11:59.844Z,2.20
2019-02-25T22:15:03.712Z,2.60
2019-02-25T22:18:09.314Z,1.90
2019-02-25T22:21:14.135Z,2.43
2019-02-25T22:24:17.756Z,2.97
2019-02-25T22:27:22.969Z,2.53
2019-02-25T22:30:26.299Z,3.17
2019-02-25T22:33:30.455Z,3.07
2019-02-25T22:36:33.493Z,2.77
2019-02-25T22:39:36.729Z,2.40
2019-02-25T22:42:41.032Z,2.43
2019-02-25T22:45:44.260Z,2.70
2019-02-25T22:48:47.342Z,2.57
2019-02-25T22:51:51.911Z,2.90
2019-02-25T22:54:55.381Z,2.50
2019-02-25T22:57:59.188Z,2.40
2019-02-25T23:01:14.822Z,2.40
2019-02-25T23:04:17.317Z,1.73
2019-02-25T23:07:22.791Z,2.27
2019-02-25T23:10:26.371Z,2.30
2019-02-25T23:13:31.880Z,2.13
2019-02-25T23:16:37.092Z,1.97
2019-02-25T23:19:40.902Z,2.40
2019-02-25T23:22:45.240Z,1.90
2019-02-25T23:25:49.119Z,2.10
2019-02-25T23:28:55.446Z,2.60
2019-02-25T23:32:01.899Z,2.40
2019-02-25T23:35:03.827Z,2.00
2019-02-25T23:38:06.787Z,1.93
2019-02-25T23:41:12.260Z,2.00
2019-02-25T23:44:17.426Z,2.57
2019-02-25T23:47:24.973Z,2.13
2019-02-25T23:50:27.942Z,1.73
2019-02-25T23:53:32.844Z,2.00
2019-02-25T23:56:36.667Z,2.50
2019-02-25T23:59:42.406Z,1.70
